Time;durP1;ratioP1;P1;durP2;ratioP2;P2;SDS_P1;SDS_P2;PMS_P1;PMS_P2;Temp;Humidity;BMP_temperature;BMP_pressure;BME280_temperature;BME280_humidity;BME280_pressure;Samples;Min_cycle;Max_cycle;Signal;HPM_P1;HPM_P2
2022/11/02 00:01:20;;;;;;;8.45;2.28;;;;;;;12.40;100.00;101247.41;2617225;31;20019;-53
2022/11/02 00:03:49;;;;;;;4.20;1.65;;;;;;;12.41;100.00;101251.81;2616461;31;20626;-56
2022/11/02 00:06:17;;;;;;;7.03;1.77;;;;;;;12.36;100.00;101256.78;2616865;36;20037;-50
2022/11/02 00:08:45;;;;;;;8.65;2.13;;;;;;;12.27;100.00;101246.81;2616043;36;20022;-52
2022/11/02 00:11:14;;;;;;;7.63;2.05;;;;;;;12.36;100.00;101248.66;2617276;36;20405;-53
2022/11/02 00:13:44;;;;;;;5.40;1.70;;;;;;;12.44;100.00;101261.50;2616514;36;20035;-54
2022/11/02 00:16:15;;;;;;;5.18;1.65;;;;;;;12.42;100.00;101245.41;2615682;36;20044;-54
2022/11/02 00:18:45;;;;;;;11.05;3.13;;;;;;;12.50;100.00;101246.56;2616325;36;20118;-52
2022/11/02 00:21:14;;;;;;;4.18;1.80;;;;;;;12.41;100.00;101254.53;2615793;36;20035;-53
2022/11/02 00:23:43;;;;;;;6.72;2.13;;;;;;;12.32;100.00;101249.09;2612750;31;20031;-55
2022/11/02 00:26:12;;;;;;;5.60;2.20;;;;;;;12.26;100.00;101254.06;2610059;36;20039;-52
2022/11/02 00:28:40;;;;;;;5.28;1.75;;;;;;;12.35;100.00;101248.81;2610417;36;20463;-52
2022/11/02 00:31:11;;;;;;;7.87;2.23;;;;;;;12.31;100.00;101242.84;2613181;36;20471;-56
2022/11/02 00:33:40;;;;;;;10.88;2.28;;;;;;;12.27;100.00;101236.00;2612937;36;20291;-54
2022/11/02 00:36:09;;;;;;;8.03;2.23;;;;;;;12.31;100.00;101245.53;2611264;31;20045;-54
2022/11/02 00:38:37;;;;;;;7.82;1.98;;;;;;;12.22;100.00;101239.13;2610966;31;20034;-57
2022/11/02 00:41:05;;;;;;;8.57;2.20;;;;;;;12.26;100.00;101239.69;2610304;36;20034;-57
2022/11/02 00:43:34;;;;;;;8.35;1.95;;;;;;;12.21;100.00;101236.56;2610342;31;20053;-52
2022/11/02 00:46:03;;;;;;;8.48;2.10;;;;;;;12.16;100.00;101238.81;2609688;36;20034;-55
2022/11/02 00:48:35;;;;;;;7.22;2.13;;;;;;;12.30;100.00;101232.19;2609439;36;20061;-50
2022/11/02 00:51:03;;;;;;;9.13;1.88;;;;;;;12.22;100.00;101232.84;2610157;31;20035;-55
2022/11/02 00:53:31;;;;;;;7.47;1.60;;;;;;;12.12;100.00;101227.44;2611144;36;20034;-51
2022/11/02 00:55:59;;;;;;;6.78;2.05;;;;;;;12.12;100.00;101238.25;2616804;36;20435;-56
2022/11/02 00:58:28;;;;;;;11.57;2.03;;;;;;;12.25;100.00;101236.16;2616414;31;20677;-53
2022/11/02 01:00:56;;;;;;;11.85;1.90;;;;;;;12.28;100.00;101232.34;2616587;31;20018;-52
2022/11/02 01:03:28;;;;;;;5.97;1.70;;;;;;;12.40;100.00;101231.22;2616685;47;20072;-56
2022/11/02 01:05:59;;;;;;;6.88;1.90;;;;;;;12.36;100.00;101235.16;2617169;31;20022;-54
2022/11/02 01:08:27;;;;;;;8.55;2.13;;;;;;;12.36;100.00;101237.88;2616389;36;20068;-57
2022/11/02 01:10:55;;;;;;;9.47;1.83;;;;;;;12.44;100.00;101248.00;2616557;36;20019;-56
2022/11/02 01:13:23;;;;;;;11.95;2.60;;;;;;;12.49;100.00;101242.19;2616040;36;20034;-52
2022/11/02 01:15:52;;;;;;;5.38;1.73;;;;;;;12.57;100.00;101243.19;2616247;36;20031;-53
2022/11/02 01:18:20;;;;;;;4.78;1.58;;;;;;;12.66;100.00;101224.41;2616409;31;20096;-50
2022/11/02 01:20:49;;;;;;;7.25;1.75;;;;;;;12.69;100.00;101240.34;2616239;36;20022;-52
2022/11/02 01:23:19;;;;;;;8.38;1.60;;;;;;;12.71;100.00;101250.00;2616052;36;20034;-54
2022/11/02 01:25:48;;;;;;;9.88;2.00;;;;;;;12.72;100.00;101240.06;2616389;36;20031;-52
2022/11/02 01:28:16;;;;;;;6.38;2.13;;;;;;;12.64;100.00;101265.06;2616278;31;20110;-57
2022/11/02 01:30:45;;;;;;;9.02;1.77;;;;;;;12.61;100.00;101255.41;2615809;36;20040;-55
2022/11/02 01:33:13;;;;;;;7.03;1.80;;;;;;;12.43;100.00;101251.69;2615771;36;20034;-50
2022/11/02 01:35:41;;;;;;;7.95;1.70;;;;;;;12.27;100.00;101236.84;2616180;36;20022;-58
2022/11/02 01:38:10;;;;;;;6.68;1.63;;;;;;;12.15;100.00;101235.28;2616463;31;20037;-53
2022/11/02 01:40:41;;;;;;;6.88;1.20;;;;;;;11.93;100.00;101241.72;2616834;36;20407;-50
2022/11/02 01:43:23;;;;;;;2.90;1.33;;;;;;;11.96;100.00;101249.53;2615941;31;20034;-51
2022/11/02 01:45:57;;;;;;;7.78;1.60;;;;;;;12.03;100.00;101249.88;2615868;36;20045;-53
2022/11/02 01:48:31;;;;;;;7.30;1.70;;;;;;;12.03;100.00;101242.63;2615649;36;20042;-55
2022/11/02 01:51:01;;;;;;;4.88;1.60;;;;;;;12.15;100.00;101247.91;2616549;31;21740;-51
2022/11/02 01:53:30;;;;;;;5.60;1.40;;;;;;;11.95;100.00;101230.78;2616016;36;20034;-54
2022/11/02 01:56:02;;;;;;;7.10;1.30;;;;;;;11.72;100.00;101263.31;2616491;31;20027;-55
2022/11/02 01:58:33;;;;;;;4.95;0.90;;;;;;;11.59;100.00;101252.75;2615956;36;20049;-53
2022/11/02 02:01:02;;;;;;;4.85;1.10;;;;;;;11.60;100.00;101210.44;2615473;31;20038;-50
2022/11/02 02:03:34;;;;;;;3.83;0.90;;;;;;;11.34;100.00;101235.13;2615282;36;20575;-52
2022/11/02 02:06:08;;;;;;;4.18;0.95;;;;;;;11.30;100.00;101239.06;2616018;36;20034;-52
2022/11/02 02:08:40;;;;;;;2.05;1.67;;;;;;;11.26;100.00;101234.94;2616658;31;20030;-51
2022/11/02 02:11:32;;;;;;;4.55;0.80;;;;;;;11.08;100.00;101235.50;2616258;36;20030;-52
2022/11/02 02:14:04;;;;;;;8.05;0.80;;;;;;;10.94;100.00;101235.81;2616792;31;20026;-55
2022/11/02 02:16:52;;;;;;;4.88;0.65;;;;;;;10.84;100.00;101236.59;2615022;36;20427;-55
2022/11/02 02:19:34;;;;;;;1.77;0.73;;;;;;;10.93;100.00;101226.06;2613699;36;20042;-54
2022/11/02 02:22:17;;;;;;;2.35;0.82;;;;;;;10.69;100.00;101235.19;2615929;36;20045;-52
2022/11/02 02:24:53;;;;;;;9.43;1.42;;;;;;;10.63;100.00;101238.38;2615244;36;20034;-51
2022/11/02 02:27:31;;;;;;;2.97;0.60;;;;;;;10.78;100.00;101236.28;2616003;36;20034;-55
2022/11/02 02:30:09;;;;;;;4.35;0.77;;;;;;;10.61;100.00;101245.75;2615712;36;20038;-52
2022/11/02 02:32:46;;;;;;;4.40;1.00;;;;;;;10.56;100.00;101234.50;2614746;36;20073;-51
2022/11/02 02:35:24;;;;;;;2.92;0.93;;;;;;;10.61;100.00;101235.81;2615383;36;20043;-55
2022/11/02 02:37:57;;;;;;;2.20;0.60;;;;;;;10.50;100.00;101236.72;2612453;36;20052;-55
2022/11/02 02:40:34;;;;;;;4.60;1.30;;;;;;;10.51;100.00;101233.03;2615690;36;20622;-55
2022/11/02 02:43:08;;;;;;;8.55;1.00;;;;;;;10.54;100.00;101244.53;2615695;36;20049;-55
2022/11/02 02:45:46;;;;;;;3.90;0.95;;;;;;;10.43;100.00;101250.81;2615590;54;20042;-57
2022/11/02 02:48:18;;;;;;;2.70;0.70;;;;;;;10.50;100.00;101243.94;2616301;36;20538;-51
2022/11/02 02:50:50;;;;;;;4.85;1.00;;;;;;;10.55;100.00;101254.31;2615358;36;20053;-53
2022/11/02 02:53:25;;;;;;;7.75;1.13;;;;;;;10.61;100.00;101245.75;2614737;36;20034;-53
2022/11/02 02:55:54;;;;;;;3.47;0.90;;;;;;;10.52;100.00;101253.56;2613962;36;20022;-54
2022/11/02 02:58:25;;;;;;;7.15;1.27;;;;;;;10.58;100.00;101254.06;2615980;36;20583;-52
2022/11/02 03:00:58;;;;;;;4.25;1.00;;;;;;;10.66;100.00;101255.16;2616076;36;20026;-49
2022/11/02 03:03:28;;;;;;;5.93;1.13;;;;;;;10.77;100.00;101246.16;2615196;36;20023;-52
2022/11/02 03:06:05;;;;;;;5.72;1.20;;;;;;;10.71;100.00;101254.75;2616453;36;20050;-50
2022/11/02 03:08:37;;;;;;;3.15;0.98;;;;;;;10.70;100.00;101242.28;2616090;36;20022;-53
2022/11/02 03:11:14;;;;;;;5.00;1.42;;;;;;;10.65;100.00;101241.81;2616583;31;20027;-49
2022/11/02 03:13:54;;;;;;;8.10;2.03;;;;;;;10.75;100.00;101248.16;2612231;36;20023;-48
2022/11/02 03:16:52;;;;;;;6.13;1.70;;;;;;;10.68;100.00;101238.88;2616208;36;20045;-55
2022/11/02 03:19:25;;;;;;;2.83;1.00;;;;;;;10.65;100.00;101231.88;2615604;36;20039;-55
2022/11/02 03:21:59;;;;;;;5.57;1.20;;;;;;;10.70;100.00;101236.88;2615725;36;20045;-54
2022/11/02 03:24:31;;;;;;;7.95;1.65;;;;;;;10.80;100.00;101231.59;2616625;31;20023;-52
2022/11/02 03:27:11;;;;;;;2.78;1.00;;;;;;;10.74;100.00;101221.34;2616812;36;20026;-50
2022/11/02 03:29:45;;;;;;;4.05;1.17;;;;;;;10.75;100.00;101226.59;2616863;36;20384;-50
2022/11/02 03:32:23;;;;;;;4.70;1.38;;;;;;;10.81;100.00;101236.00;2615937;36;20423;-52
2022/11/02 03:34:57;;;;;;;9.05;2.30;;;;;;;10.93;100.00;101234.13;2616000;36;20053;-53
2022/11/02 03:37:30;;;;;;;7.90;1.80;;;;;;;10.83;100.00;101245.66;2616688;36;20029;-53
2022/11/02 03:40:06;;;;;;;6.93;1.52;;;;;;;10.75;100.00;101232.00;2617094;31;20037;-51
2022/11/02 03:42:36;;;;;;;7.38;1.67;;;;;;;10.86;100.00;101245.41;2616555;36;20591;-54
2022/11/02 03:45:12;;;;;;;7.75;1.60;;;;;;;10.93;100.00;101247.59;2616347;36;20029;-52
2022/11/02 03:47:46;;;;;;;5.20;1.52;;;;;;;10.95;100.00;101238.38;2617101;36;20018;-53
2022/11/02 03:50:19;;;;;;;8.25;1.45;;;;;;;10.90;100.00;101235.22;2616732;36;20096;-50
2022/11/02 03:52:52;;;;;;;8.45;1.80;;;;;;;10.94;100.00;101242.06;2615754;36;20022;-51
2022/11/02 03:55:30;;;;;;;6.57;1.55;;;;;;;10.93;100.00;101251.13;2617093;36;20027;-50
2022/11/02 03:57:59;;;;;;;6.53;1.87;;;;;;;11.09;100.00;101253.38;2617046;36;20027;-52
2022/11/02 04:00:30;;;;;;;6.22;1.27;;;;;;;11.11;100.00;101256.78;2615898;31;20295;-57
2022/11/02 04:03:03;;;;;;;7.78;2.05;;;;;;;11.03;100.00;101267.38;2616221;36;20034;-49
2022/11/02 04:05:34;;;;;;;7.60;2.17;;;;;;;11.02;100.00;101265.66;2616683;31;20431;-49
2022/11/02 04:16:06;;;;;;;6.78;1.83;;;;;;;11.13;100.00;101279.09;2614201;36;20053;-54
2022/11/02 04:21:18;;;;;;;10.93;1.75;;;;;;;11.33;100.00;101298.09;2615897;36;20031;-50
2022/11/02 04:26:27;;;;;;;6.38;1.75;;;;;;;11.55;100.00;101287.19;2615385;36;20403;-51
2022/11/02 04:28:55;;;;;;;7.43;1.70;;;;;;;11.53;100.00;101297.25;2616112;36;20451;-49
2022/11/02 04:31:23;;;;;;;5.18;1.80;;;;;;;11.43;100.00;101301.72;2616010;31;20035;-48
2022/11/02 04:33:52;;;;;;;8.30;1.67;;;;;;;11.45;100.00;101305.13;2616130;36;20034;-56
2022/11/02 04:36:20;;;;;;;9.52;1.92;;;;;;;11.52;100.00;101317.09;2615889;36;20046;-58
2022/11/02 04:38:46;;;;;;;11.23;2.00;;;;;;;11.47;100.00;101323.88;2616268;36;20022;-52
2022/11/02 04:43:57;;;;;;;10.57;1.95;;;;;;;11.72;100.00;101326.19;2616784;36;20041;-49
2022/11/02 04:46:28;;;;;;;9.15;1.90;;;;;;;11.79;100.00;101344.53;2617311;31;20409;-51
2022/11/02 04:48:59;;;;;;;16.73;2.83;;;;;;;11.80;100.00;101349.78;2614868;31;20041;-54
2022/11/02 04:51:30;;;;;;;7.20;1.95;;;;;;;11.80;100.00;101344.38;2616121;36;20026;-50
2022/11/02 04:53:59;;;;;;;9.05;2.10;;;;;;;11.71;100.00;101348.72;2616541;36;20547;-54
2022/11/02 04:56:29;;;;;;;9.57;1.85;;;;;;;11.61;100.00;101365.84;2616817;36;20049;-50
2022/11/02 04:58:59;;;;;;;10.38;1.95;;;;;;;11.53;100.00;101378.13;2616070;36;20042;-52
2022/11/02 05:01:30;;;;;;;14.10;2.90;;;;;;;11.50;100.00;101374.84;2614022;36;20041;-50
2022/11/02 05:04:01;;;;;;;10.82;1.73;;;;;;;11.42;100.00;101366.53;2615664;36;20038;-52
2022/11/02 05:06:29;;;;;;;7.88;1.77;;;;;;;11.37;100.00;101375.00;2617335;31;20037;-51
2022/11/02 05:08:58;;;;;;;8.50;2.30;;;;;;;11.38;100.00;101371.31;2615532;36;20038;-55
2022/11/02 05:11:26;;;;;;;9.48;1.88;;;;;;;11.37;100.00;101383.94;2612869;36;20041;-55
2022/11/02 05:13:54;;;;;;;14.50;2.83;;;;;;;11.37;100.00;101383.09;2614535;36;20026;-53
2022/11/02 05:16:23;;;;;;;7.73;2.10;;;;;;;11.50;100.00;101378.38;2615666;36;20038;-54
2022/11/02 05:18:51;;;;;;;8.73;1.88;;;;;;;11.34;100.00;101389.59;2616108;31;20034;-49
2022/11/02 05:21:22;;;;;;;13.13;2.17;;;;;;;11.39;100.00;101413.47;2615497;36;20550;-56
2022/11/02 05:23:50;;;;;;;25.75;3.17;;;;;;;11.40;100.00;101404.41;2615753;36;20023;-54
2022/11/02 05:26:18;;;;;;;8.80;2.08;;;;;;;11.42;100.00;101407.81;2615523;36;20026;-53
2022/11/02 05:28:47;;;;;;;9.52;2.13;;;;;;;11.49;100.00;101414.41;2615814;54;20038;-50
2022/11/02 05:31:15;;;;;;;11.02;2.30;;;;;;;11.43;100.00;101416.78;2615273;54;20022;-52
2022/11/02 05:33:43;;;;;;;10.48;1.70;;;;;;;11.43;100.00;101411.38;2616530;36;20026;-56
2022/11/02 05:36:12;;;;;;;7.50;1.73;;;;;;;11.39;100.00;101413.47;2615278;31;20023;-51
2022/11/02 05:38:43;;;;;;;12.18;2.47;;;;;;;11.40;100.00;101415.19;2616311;36;20630;-59
2022/11/02 05:41:11;;;;;;;10.05;1.35;;;;;;;11.40;100.00;101415.19;2615443;31;20046;-54
2022/11/02 05:43:39;;;;;;;10.40;1.90;;;;;;;11.41;100.00;101422.28;2616259;36;20025;-54
2022/11/02 05:46:08;;;;;;;7.80;1.90;;;;;;;11.50;100.00;101426.91;2613672;36;20030;-54
2022/11/02 05:48:36;;;;;;;9.63;1.95;;;;;;;11.51;100.00;101431.31;2617120;36;20086;-54
2022/11/02 05:51:06;;;;;;;9.75;1.90;;;;;;;11.45;100.00;101439.06;2615710;36;20495;-58
2022/11/02 05:53:37;;;;;;;12.50;3.10;;;;;;;11.46;100.00;101441.63;2616537;36;20443;-55
2022/11/02 05:56:12;;;;;;;15.70;2.35;;;;;;;11.43;100.00;101449.13;2616402;31;20114;-52
2022/11/02 05:58:40;;;;;;;9.45;2.10;;;;;;;11.39;100.00;101445.81;2615438;36;20035;-52
2022/11/02 06:01:10;;;;;;;9.73;2.40;;;;;;;11.42;100.00;101450.09;2614859;36;20034;-55
2022/11/02 06:03:38;;;;;;;6.22;1.98;;;;;;;11.49;100.00;101449.44;2614114;36;20030;-54
2022/11/02 06:06:11;;;;;;;15.68;3.17;;;;;;;11.48;100.00;101469.28;2614005;36;20042;-50
2022/11/02 06:08:40;;;;;;;9.80;2.42;;;;;;;11.50;100.00;101475.44;2615148;36;20045;-54
2022/11/02 06:11:12;;;;;;;;;;;;;;;11.47;100.00;101466.72;2614614;36;20121;-56
2022/11/02 06:13:41;;;;;;;14.27;2.15;;;;;;;11.48;100.00;101480.06;2616282;36;19950;-58
2022/11/02 06:16:14;;;;;;;12.48;3.47;;;;;;;11.43;100.00;101484.16;2615209;31;20026;-53
2022/11/02 06:18:42;;;;;;;5.50;1.70;;;;;;;11.45;100.00;101482.19;2614753;36;20562;-50
2022/11/02 06:21:11;;;;;;;7.93;2.08;;;;;;;11.38;100.00;101487.19;2614629;36;20042;-53
2022/11/02 06:23:39;;;;;;;12.85;1.92;;;;;;;11.33;100.00;101498.38;2615880;36;20026;-53
2022/11/02 06:26:07;;;;;;;10.53;2.37;;;;;;;11.32;100.00;101501.19;2615910;36;20129;-55
2022/11/02 06:28:38;;;;;;;12.82;2.22;;;;;;;11.38;100.00;101512.34;2615977;36;20034;-54
2022/11/02 06:31:07;;;;;;;9.20;1.50;;;;;;;11.37;100.00;101513.31;2613635;36;20053;-53
2022/11/02 06:33:35;;;;;;;9.53;2.10;;;;;;;11.46;100.00;101517.09;2615199;36;20038;-56
2022/11/02 06:36:04;;;;;;;15.80;2.07;;;;;;;11.42;100.00;101521.00;2614635;36;20291;-53
2022/11/02 06:38:33;;;;;;;6.65;1.55;;;;;;;11.33;100.00;101521.78;2615585;36;20022;-52
2022/11/02 06:41:05;;;;;;;9.30;1.73;;;;;;;11.41;100.00;101540.88;2615101;36;20022;-54
2022/11/02 06:43:36;;;;;;;8.40;1.55;;;;;;;11.29;100.00;101550.81;2616187;36;20423;-53
2022/11/02 06:46:07;;;;;;;9.27;1.98;;;;;;;11.27;100.00;101542.00;2612591;36;20042;-55
2022/11/02 06:48:38;;;;;;;10.13;1.98;;;;;;;11.17;100.00;101552.66;2612758;36;20034;-54
2022/11/02 06:51:07;;;;;;;12.65;1.58;;;;;;;11.23;100.00;101556.69;2613033;36;20411;-51
2022/11/02 06:53:36;;;;;;;6.93;1.83;;;;;;;11.25;100.00;101573.59;2615474;36;20034;-51
2022/11/02 06:56:04;;;;;;;7.10;1.73;;;;;;;11.15;100.00;101573.47;2615118;36;20022;-50
2022/11/02 06:58:32;;;;;;;8.40;1.75;;;;;;;11.25;100.00;101580.81;2613912;36;20022;-55
2022/11/02 07:01:03;;;;;;;10.30;1.58;;;;;;;11.19;100.00;101599.19;2613002;36;20042;-51
2022/11/02 07:03:34;;;;;;;7.47;2.33;;;;;;;11.23;100.00;101597.09;2614461;36;20022;-50
2022/11/02 07:06:03;;;;;;;9.98;1.60;;;;;;;11.31;100.00;101600.06;2615343;36;20041;-53
2022/11/02 07:08:31;;;;;;;7.40;1.40;;;;;;;11.29;100.00;101611.94;2615353;36;20535;-50
2022/11/02 07:11:00;;;;;;;11.85;1.85;;;;;;;11.33;100.00;101627.72;2614246;36;20732;-53
2022/11/02 07:13:28;;;;;;;4.13;1.57;;;;;;;11.36;100.00;101622.09;2614135;36;20023;-53
2022/11/02 07:15:57;;;;;;;5.13;1.10;;;;;;;11.31;100.00;101639.63;2615490;36;20422;-51
2022/11/02 07:18:25;;;;;;;7.93;1.83;;;;;;;11.26;100.00;101639.13;2616872;31;20042;-49
2022/11/02 07:20:56;;;;;;;9.45;1.85;;;;;;;11.21;100.00;101640.34;2617941;36;20435;-53
2022/11/02 07:23:24;;;;;;;10.43;2.45;;;;;;;11.24;100.00;101647.34;2617074;36;20022;-49
2022/11/02 07:25:53;;;;;;;7.88;1.40;;;;;;;11.29;100.00;101657.75;2616298;36;20038;-50
2022/11/02 07:28:21;;;;;;;7.75;1.60;;;;;;;11.26;100.00;101666.91;2616386;31;20034;-49
2022/11/02 07:30:49;;;;;;;12.63;2.05;;;;;;;11.26;100.00;101666.06;2615707;36;20041;-54
2022/11/02 07:33:18;;;;;;;8.63;1.83;;;;;;;11.27;100.00;101670.50;2617152;36;20026;-51
2022/11/02 07:35:46;;;;;;;8.27;1.45;;;;;;;11.32;100.00;101676.38;2617473;32;20027;-52
2022/11/02 07:38:17;;;;;;;7.53;1.85;;;;;;;11.38;100.00;101686.66;2616865;36;20030;-53
2022/11/02 07:40:45;;;;;;;7.85;1.45;;;;;;;11.41;100.00;101686.44;2616941;36;20049;-53
2022/11/02 07:43:13;;;;;;;4.80;1.15;;;;;;;11.38;100.00;101682.16;2617299;36;20602;-54
2022/11/02 07:45:42;;;;;;;3.20;0.88;;;;;;;11.45;100.00;101695.97;2617118;31;20027;-55
2022/11/02 07:48:10;;;;;;;4.82;1.40;;;;;;;11.48;100.00;101698.44;2616562;36;20543;-54
2022/11/02 07:50:38;;;;;;;8.68;1.23;;;;;;;11.44;100.00;101699.69;2616968;36;20035;-54
2022/11/02 07:53:07;;;;;;;7.80;1.10;;;;;;;11.41;100.00;101702.63;2616672;36;20030;-55
2022/11/02 07:55:38;;;;;;;4.67;1.00;;;;;;;11.44;100.00;101706.88;2616405;36;20034;-55
2022/11/02 07:58:07;;;;;;;6.57;0.85;;;;;;;11.45;100.00;101709.47;2617089;31;20037;-51
2022/11/02 08:00:39;;;;;;;6.00;1.10;;;;;;;11.46;100.00;101715.72;2616077;31;20041;-50
2022/11/02 08:03:09;;;;;;;6.95;1.15;;;;;;;11.47;100.00;101712.91;2617234;36;20019;-54
2022/11/02 08:05:39;;;;;;;7.63;1.30;;;;;;;11.48;100.00;101724.53;2617095;36;20026;-52
2022/11/02 08:08:10;;;;;;;3.83;1.30;;;;;;;11.46;100.00;101721.97;2617480;31;20019;-58
2022/11/02 08:10:41;;;;;;;3.63;1.00;;;;;;;11.52;100.00;101729.56;2617040;36;20027;-51
2022/11/02 08:13:10;;;;;;;10.63;1.20;;;;;;;11.57;100.00;101729.19;2617059;36;20559;-50
2022/11/02 08:15:39;;;;;;;7.38;1.10;;;;;;;11.66;100.00;101735.69;2616240;36;20058;-54
2022/11/02 08:18:09;;;;;;;8.77;1.52;;;;;;;11.63;100.00;101738.63;2616843;31;20451;-50
2022/11/02 08:20:38;;;;;;;5.43;1.02;;;;;;;11.56;100.00;101732.91;2616285;36;20031;-54
2022/11/02 08:23:07;;;;;;;8.32;1.13;;;;;;;11.64;100.00;101740.38;2616632;36;20034;-55
2022/11/02 08:25:36;;;;;;;5.65;1.20;;;;;;;11.60;100.00;101742.47;2616347;36;20042;-58
2022/11/02 08:28:08;;;;;;;11.20;1.52;;;;;;;11.78;100.00;101733.88;2616300;36;20034;-53
2022/11/02 08:30:36;;;;;;;4.00;1.25;;;;;;;11.84;100.00;101747.72;2615583;36;20050;-57
2022/11/02 08:33:06;;;;;;;8.55;1.33;;;;;;;11.78;100.00;101750.91;2616432;36;20022;-52
2022/11/02 08:35:36;;;;;;;5.97;1.05;;;;;;;11.95;100.00;101746.03;2616704;31;20035;-52
2022/11/02 08:38:05;;;;;;;7.88;1.30;;;;;;;11.97;100.00;101746.75;2616494;36;20034;-52
2022/11/02 08:40:34;;;;;;;6.97;1.10;;;;;;;11.99;100.00;101761.84;2615668;36;20042;-52
2022/11/02 08:43:05;;;;;;;2.10;1.10;;;;;;;12.12;100.00;101756.34;2616563;31;20114;-50
2022/11/02 08:45:37;;;;;;;6.80;1.20;;;;;;;12.08;100.00;101762.97;2616643;36;20519;-53
2022/11/02 08:48:06;;;;;;;7.10;1.42;;;;;;;11.96;100.00;101774.75;2616122;36;20027;-53
2022/11/02 08:50:35;;;;;;;5.22;1.45;;;;;;;12.08;100.00;101765.66;2615760;36;20031;-51
2022/11/02 08:53:04;;;;;;;8.13;1.25;;;;;;;12.06;100.00;101773.03;2616599;36;20023;-53
2022/11/02 08:55:32;;;;;;;6.80;1.35;;;;;;;12.13;100.00;101774.25;2616290;36;20035;-52
2022/11/02 08:58:02;;;;;;;9.35;1.30;;;;;;;12.17;100.00;101778.41;2616886;36;20037;-52
2022/11/02 09:00:32;;;;;;;8.38;1.20;;;;;;;12.23;100.00;101780.63;2615077;36;20061;-54
2022/11/02 09:03:06;;;;;;;5.82;1.38;;;;;;;12.38;100.00;101770.41;2616412;31;20037;-55
2022/11/02 09:05:37;;;;;;;5.30;0.98;;;;;;;12.36;100.00;101774.22;2616384;36;20610;-52
2022/11/02 09:08:07;;;;;;;6.85;1.33;;;;;;;12.47;100.00;101768.81;2616538;31;20034;-55
2022/11/02 09:10:37;;;;;;;5.38;2.20;;;;;;;12.54;100.00;101779.94;2616296;36;20034;-54
2022/11/02 09:13:08;;;;;;;8.05;1.75;;;;;;;12.52;100.00;101781.94;2616558;36;20530;-52
2022/11/02 09:15:38;;;;;;;7.95;1.30;;;;;;;12.45;100.00;101770.75;2616428;36;20431;-55
2022/11/02 09:18:09;;;;;;;4.75;0.98;;;;;;;12.46;100.00;101790.53;2616534;36;20034;-51
2022/11/02 09:20:38;;;;;;;5.95;1.40;;;;;;;12.43;100.00;101802.44;2616307;36;20049;-53
2022/11/02 09:23:07;;;;;;;4.28;1.20;;;;;;;12.55;100.00;101801.41;2616352;36;20042;-54
2022/11/02 09:25:35;;;;;;;10.27;1.23;;;;;;;12.57;100.00;101804.88;2615981;36;20106;-53
2022/11/02 09:28:03;;;;;;;5.43;1.40;;;;;;;12.69;100.00;101812.91;2616779;36;20048;-50
2022/11/02 09:30:32;;;;;;;4.93;0.90;;;;;;;12.67;100.00;101804.09;2615703;36;20061;-55
2022/11/02 09:33:02;;;;;;;5.47;0.90;;;;;;;12.69;100.00;101811.09;2616816;36;20427;-53
2022/11/02 09:35:35;;;;;;;6.28;1.00;;;;;;;12.87;100.00;101816.81;2617492;31;20033;-54
2022/11/02 09:38:05;;;;;;;8.95;1.50;;;;;;;12.90;100.00;101816.56;2616308;36;20023;-53
2022/11/02 09:40:39;;;;;;;5.45;1.67;;;;;;;12.87;100.00;101822.22;2616908;36;20030;-53
2022/11/02 09:43:20;;;;;;;11.10;1.95;;;;;;;12.81;100.00;101817.34;2616619;36;20470;-53
2022/11/02 09:45:57;;;;;;;4.05;1.35;;;;;;;12.92;100.00;101814.56;2615230;36;20034;-53
2022/11/02 09:48:30;;;;;;;8.93;1.30;;;;;;;13.06;100.00;101828.78;2616083;36;20729;-55
2022/11/02 09:51:05;;;;;;;4.80;1.05;;;;;;;13.03;100.00;101840.72;2616734;36;20041;-58
2022/11/02 09:53:57;;;;;;;10.32;1.63;;;;;;;12.97;100.00;101839.38;2616267;36;20029;-48
2022/11/02 09:56:26;;;;;;;11.07;1.35;;;;;;;13.10;100.00;101851.84;2615973;31;20034;-55
2022/11/02 09:59:00;;;;;;;6.45;1.50;;;;;;;13.15;100.00;101842.38;2616825;31;20022;-53
2022/11/02 10:01:39;;;;;;;11.32;1.85;;;;;;;13.06;100.00;101847.69;2616340;36;20018;-51
2022/11/02 10:04:43;;;;;;;4.53;0.90;;;;;;;13.20;100.00;101835.75;2614959;36;20030;-53
2022/11/02 10:07:27;;;;;;;12.50;1.40;;;;;;;13.04;100.00;101849.69;2614147;36;20038;-59
2022/11/02 10:09:59;;;;;;;5.75;2.88;;;;;;;13.13;100.00;101855.19;2616746;36;20022;-55
2022/11/02 10:12:33;;;;;;;5.93;1.10;;;;;;;13.15;100.00;101872.13;2616737;36;20076;-53
2022/11/02 10:15:07;;;;;;;9.30;1.30;;;;;;;13.04;100.00;101855.09;2615890;36;20037;-56
2022/11/02 10:17:40;;;;;;;5.30;1.17;;;;;;;13.19;100.00;101870.03;2616325;36;20043;-53
2022/11/02 10:20:19;;;;;;;6.35;1.35;;;;;;;13.21;100.00;101868.03;2615803;36;20034;-53
2022/11/02 10:22:50;;;;;;;11.02;1.52;;;;;;;13.22;100.00;101874.31;2616187;31;20556;-57
2022/11/02 10:25:19;;;;;;;11.98;1.63;;;;;;;13.39;100.00;101865.66;2616210;36;20553;-51
2022/11/02 10:27:51;;;;;;;7.82;1.55;;;;;;;13.60;100.00;101873.81;2617219;36;20030;-56
2022/11/02 10:30:22;;;;;;;8.35;1.20;;;;;;;13.40;100.00;101880.06;2616551;31;20041;-56
2022/11/02 10:32:54;;;;;;;7.50;1.33;;;;;;;13.44;100.00;101878.78;2617127;36;20121;-53
2022/11/02 10:35:35;;;;;;;4.95;1.25;;;;;;;13.33;100.00;101888.63;2616027;36;20049;-54
2022/11/02 10:38:18;;;;;;;5.25;1.27;;;;;;;13.42;100.00;101869.97;2616161;36;20041;-55
2022/11/02 10:41:00;;;;;;;5.35;1.33;;;;;;;13.59;100.00;101885.63;2617258;36;20042;-54
2022/11/02 10:43:41;;;;;;;8.70;1.02;;;;;;;13.55;100.00;101886.84;2616777;36;20102;-53
2022/11/02 10:46:31;;;;;;;5.43;1.38;;;;;;;13.73;100.00;101888.97;2615823;54;20039;-59
2022/11/02 10:49:08;;;;;;;6.60;1.20;;;;;;;13.51;100.00;101885.41;2617499;36;20479;-55
2022/11/02 10:51:37;;;;;;;4.30;1.00;;;;;;;13.75;100.00;101887.88;2616958;36;20057;-53
2022/11/02 10:54:14;;;;;;;5.40;1.08;;;;;;;13.70;100.00;101889.25;2616543;36;20039;-57
2022/11/02 10:56:45;;;;;;;5.47;1.10;;;;;;;13.87;100.00;101893.19;2617100;36;20018;-52
2022/11/02 10:59:18;;;;;;;9.95;1.65;;;;;;;13.89;100.00;101889.38;2617228;54;20056;-57
2022/11/02 11:01:49;;;;;;;8.20;1.30;;;;;;;14.09;100.00;101897.59;2615978;36;20041;-55
2022/11/02 11:04:23;;;;;;;7.55;1.42;;;;;;;14.08;100.00;101899.47;2616960;36;20038;-57
2022/11/02 11:06:52;;;;;;;10.48;1.80;;;;;;;14.37;100.00;101902.31;2616925;36;20027;-55
2022/11/02 11:09:29;;;;;;;9.32;1.60;;;;;;;14.19;100.00;101895.81;2616696;36;20035;-58
2022/11/02 11:11:59;;;;;;;6.65;1.20;;;;;;;14.29;100.00;101890.47;2616860;36;20031;-55
2022/11/02 11:14:31;;;;;;;5.90;1.15;;;;;;;14.31;100.00;101905.59;2616941;36;20030;-55
2022/11/02 11:17:01;;;;;;;9.23;1.50;;;;;;;14.31;100.00;101900.16;2616308;31;20045;-51
2022/11/02 11:19:36;;;;;;;7.18;1.50;;;;;;;14.50;100.00;101903.94;2616487;36;20039;-56
2022/11/02 11:22:05;;;;;;;11.52;1.48;;;;;;;14.61;100.00;101903.00;2616753;36;20547;-60
2022/11/02 11:24:36;;;;;;;12.45;2.17;;;;;;;14.47;100.00;101905.09;2617382;36;20042;-57
2022/11/02 11:27:15;;;;;;;7.50;1.33;;;;;;;14.51;100.00;101902.94;2617394;31;20018;-56
2022/11/02 11:29:49;;;;;;;6.55;1.30;;;;;;;14.57;100.00;101905.13;2617090;36;20022;-57
2022/11/02 11:32:19;;;;;;;6.55;1.38;;;;;;;14.74;100.00;101900.06;2617385;31;20447;-54
2022/11/02 11:34:55;;;;;;;10.35;1.50;;;;;;;14.88;100.00;101896.97;2617656;36;20150;-57
2022/11/02 11:37:24;;;;;;;7.88;1.42;;;;;;;14.93;100.00;101892.00;2616127;36;20053;-60
2022/11/02 11:40:00;;;;;;;12.10;1.42;;;;;;;14.93;100.00;101893.84;2616941;36;20027;-58
2022/11/02 11:42:32;;;;;;;5.90;1.17;;;;;;;14.87;100.00;101903.41;2616339;36;20042;-57
2022/11/02 11:45:04;;;;;;;11.52;1.40;;;;;;;14.52;100.00;101902.81;2615965;36;20031;-56
2022/11/02 11:47:35;;;;;;;6.35;1.40;;;;;;;14.26;100.00;101899.69;2616213;36;20018;-58
2022/11/02 11:50:07;;;;;;;7.45;1.50;;;;;;;14.27;100.00;101904.13;2617000;36;20048;-57
2022/11/02 11:52:37;;;;;;;6.97;1.42;;;;;;;14.05;100.00;101899.75;2616316;36;20027;-56